ENAT/ALF METAR and TAF weather

Enter ICAO airport designator
Station Type Date Time Source
ENAT METAR 2020/09/30 15:50 UTC NOAA

ENAT 301550Z 16008KT 120V180 9999 SCT023 BKN090 12/08 Q1016 RMK WIND 700FT 18011KT


Station Type Date Time Source
ENAT Decoded METAR 2020/09/30 15:50 UTC NOAA

Alta Lufthavn, Norway (ENAT) 69-59N 023-22E 3M
Sep 30, 2020 - 11:50 AM EDT / 2020.09.30 1550 UTC
Wind: from the SSE (160 degrees) at 9 MPH (8 KT) (direction variable):0
Visibility: greater than 7 mile(s):0
Sky conditions: mostly cloudy
Temperature: 53 F (12 C)
Dew Point: 46 F (8 C)
Relative Humidity: 76%
Pressure (altimeter): 30.00 in. Hg (1016 hPa)
ob: ENAT 301550Z 16008KT 120V180 9999 SCT023 BKN090 12/08 Q1016 RMK WIND 700FT 18011KT
cycle: 16

Station Type Date Time Source
ENAT TAF 2008/11/30 23:00 UTC NOAA

TAF TAF ENAT 302300Z 3023/0102 22005KT 7000 -SN FEW008 BKN020
TEMPO 3023/0102 3000 -SN VV012

Example: see airport list